Time;durP1;ratioP1;P1;durP2;ratioP2;P2;SDS_P1;SDS_P2;PMS_P1;PMS_P2;Temp;Humidity;BMP_temperature;BMP_pressure;BME280_temperature;BME280_humidity;BME280_pressure;Samples;Min_cycle;Max_cycle;Signal;HPM_P1;HPM_P2
2022/11/02 00:00:43;;;;;;;3.67;1.45;;;;;;;9.13;80.99;98947.41;4155439;28;20463;-73
2022/11/02 00:02:43;;;;;;;4.30;1.20;;;;;;;9.12;81.84;98939.50;4156019;28;20045;-73
2022/11/02 00:04:44;;;;;;;3.03;1.25;;;;;;;9.10;83.54;98937.09;4156204;28;20057;-73
2022/11/02 00:06:44;;;;;;;2.72;1.25;;;;;;;9.03;83.66;98944.41;4157220;28;20385;-73
2022/11/02 00:08:44;;;;;;;3.03;1.30;;;;;;;8.95;82.50;98946.19;4157763;28;20073;-73
2022/11/02 00:10:45;;;;;;;5.22;1.00;;;;;;;8.89;83.98;98944.84;4159242;28;20041;-73
2022/11/02 00:12:46;;;;;;;5.57;1.35;;;;;;;8.86;85.32;98954.63;4156268;28;20063;-73
2022/11/02 00:14:46;;;;;;;4.97;1.98;;;;;;;8.84;85.57;98948.66;4154564;28;20103;-73
2022/11/02 00:16:46;;;;;;;6.40;1.80;;;;;;;8.78;85.91;98950.09;4155276;28;20049;-73
2022/11/02 00:18:51;;;;;;;6.05;2.75;;;;;;;8.75;83.91;98947.22;4155453;28;20073;-73
2022/11/02 00:20:51;;;;;;;4.07;1.48;;;;;;;8.65;83.42;98952.09;4158305;28;20064;-73
2022/11/02 00:22:56;;;;;;;5.63;1.30;;;;;;;8.68;83.82;98950.59;4155211;28;20041;-73
2022/11/02 00:24:56;;;;;;;4.68;1.30;;;;;;;8.72;86.44;98955.06;4154903;28;20060;-73
2022/11/02 00:26:57;;;;;;;5.70;1.40;;;;;;;8.74;86.54;98946.41;4156311;28;20037;-73
2022/11/02 00:28:57;;;;;;;3.92;1.40;;;;;;;8.75;86.97;98958.25;4155334;28;20537;-73
2022/11/02 00:30:58;;;;;;;4.43;1.30;;;;;;;8.71;87.00;98958.97;4154777;28;20563;-73
2022/11/02 00:32:58;;;;;;;8.57;1.50;;;;;;;8.69;86.56;98952.22;4157844;28;20060;-73
2022/11/02 00:34:58;;;;;;;6.57;1.60;;;;;;;8.71;86.83;98953.47;4155842;28;20049;-73
2022/11/02 00:36:59;;;;;;;4.38;1.38;;;;;;;8.65;87.26;98949.34;4156829;28;20045;-73
2022/11/02 00:38:59;;;;;;;3.63;1.45;;;;;;;8.71;85.79;98958.19;4155578;28;20053;-73
2022/11/02 00:40:59;;;;;;;4.50;2.03;;;;;;;8.80;88.23;98958.00;4156956;28;20076;-73
2022/11/02 00:43:00;;;;;;;4.75;1.17;;;;;;;8.81;87.21;98956.84;4154633;28;20712;-73
2022/11/02 00:45:00;;;;;;;5.60;1.45;;;;;;;8.76;86.78;98948.81;4155001;28;20053;-73
2022/11/02 00:47:00;;;;;;;4.57;1.55;;;;;;;8.74;87.58;98951.94;4155641;28;20068;-73
2022/11/02 00:49:01;;;;;;;2.75;1.33;;;;;;;8.70;87.90;98960.13;4155407;28;20052;-73
2022/11/02 00:51:01;;;;;;;5.10;1.58;;;;;;;8.70;89.00;98956.56;4154906;28;20388;-73
2022/11/02 00:53:01;;;;;;;2.90;1.67;;;;;;;8.71;87.44;98960.94;4154754;28;20088;-73
2022/11/02 00:55:01;;;;;;;3.65;1.05;;;;;;;8.70;86.91;98962.09;4157295;28;20248;-73
2022/11/02 00:57:02;;;;;;;3.40;1.40;;;;;;;8.66;86.13;98955.66;4154678;28;20544;-73
2022/11/02 00:59:02;;;;;;;6.43;1.38;;;;;;;8.66;87.44;98956.47;4154070;28;20073;-73
2022/11/02 01:01:04;;;;;;;2.80;1.23;;;;;;;8.64;87.63;98955.22;4154896;28;20041;-73
2022/11/02 01:03:04;;;;;;;3.07;1.30;;;;;;;8.59;87.61;98956.28;4161584;28;20044;-73
2022/11/02 01:05:05;;;;;;;5.93;1.98;;;;;;;8.56;87.42;98957.00;4156282;28;20505;-73
2022/11/02 01:07:06;;;;;;;9.68;1.67;;;;;;;8.52;86.55;98955.28;4155341;28;20099;-73
2022/11/02 01:09:06;;;;;;;5.05;1.52;;;;;;;8.49;87.16;98956.78;4156862;28;20045;-73
2022/11/02 01:11:12;;;;;;;3.90;1.20;;;;;;;8.46;87.93;98948.44;4155292;28;20045;-73
2022/11/02 01:13:12;;;;;;;4.88;1.40;;;;;;;8.49;88.50;98956.78;4153625;28;20064;-73
2022/11/02 01:15:12;;;;;;;3.65;1.17;;;;;;;8.48;88.77;98944.16;4154676;28;20517;-73
2022/11/02 01:17:13;;;;;;;4.88;1.27;;;;;;;8.46;89.87;98938.19;4156772;28;20469;-73
2022/11/02 01:19:14;;;;;;;3.17;1.20;;;;;;;8.41;88.82;98944.75;4158223;28;20044;-73
2022/11/02 01:21:14;;;;;;;3.50;1.60;;;;;;;8.39;89.20;98941.56;4155621;28;20124;-73
2022/11/02 01:23:14;;;;;;;2.50;1.42;;;;;;;8.33;88.61;98936.63;4154177;28;20128;-73
2022/11/02 01:25:15;;;;;;;6.35;1.80;;;;;;;8.33;88.84;98940.19;4155470;28;20087;-73
2022/11/02 01:27:15;;;;;;;4.63;1.67;;;;;;;8.26;89.04;98928.94;4154981;28;20037;-73
2022/11/02 01:29:15;;;;;;;4.00;1.20;;;;;;;8.25;90.75;98929.31;4155127;28;20372;-73
2022/11/02 01:31:15;;;;;;;3.63;1.63;;;;;;;8.15;87.99;98939.69;4159142;28;20266;-73
2022/11/02 01:33:16;;;;;;;3.10;1.40;;;;;;;8.09;89.60;98943.84;4154417;28;20373;-73
2022/11/02 01:35:16;;;;;;;5.43;1.52;;;;;;;8.06;90.74;98939.03;4155626;28;20037;-73
2022/11/02 01:37:16;;;;;;;3.63;1.65;;;;;;;7.96;89.22;98934.03;4157874;28;20041;-73
2022/11/02 01:39:17;;;;;;;3.70;1.20;;;;;;;7.88;89.49;98933.00;4160857;28;20049;-73
2022/11/02 01:41:17;;;;;;;3.92;1.17;;;;;;;7.89;92.18;98920.84;4157761;28;20038;-73
2022/11/02 01:43:30;;;;;;;6.05;1.67;;;;;;;7.79;90.23;98917.78;4161779;28;20052;-73
2022/11/02 01:45:32;;;;;;;6.32;2.60;;;;;;;7.79;90.73;98915.03;4157991;28;20034;-73
2022/11/02 01:47:39;;;;;;;12.17;1.90;;;;;;;7.71;91.44;98910.47;4159628;28;20058;-73
2022/11/02 01:49:44;;;;;;;6.40;1.35;;;;;;;7.98;93.75;98911.63;4160522;28;20775;-73
2022/11/02 01:51:56;;;;;;;6.43;1.60;;;;;;;7.93;91.41;98907.16;4158112;28;20049;-73
2022/11/02 01:54:01;;;;;;;6.00;1.80;;;;;;;7.94;91.70;98897.72;4159402;28;20540;-73
2022/11/02 01:56:12;;;;;;;5.07;1.33;;;;;;;8.05;91.17;98909.88;4160511;28;20056;-73
2022/11/02 01:58:12;;;;;;;4.65;1.60;;;;;;;8.19;92.40;98912.22;4160578;28;20037;-73
2022/11/02 02:00:14;;;;;;;5.07;1.40;;;;;;;8.21;90.97;98903.59;4157617;28;20033;-73
2022/11/02 02:02:18;;;;;;;5.35;1.48;;;;;;;8.25;91.65;98908.06;4160353;28;20060;-72
2022/11/02 02:04:21;;;;;;;6.82;1.90;;;;;;;8.32;92.20;98904.69;4158170;28;20053;-73
2022/11/02 02:06:24;;;;;;;2.60;1.40;;;;;;;8.32;91.55;98911.00;4159987;28;20501;-73
2022/11/02 02:08:26;;;;;;;3.35;1.75;;;;;;;8.27;90.34;98908.50;4160177;28;20477;-73
2022/11/02 02:10:26;;;;;;;8.88;1.70;;;;;;;8.24;90.26;98905.66;4159111;28;20060;-73
2022/11/02 02:12:29;;;;;;;2.53;1.40;;;;;;;8.28;92.11;98904.59;4160157;28;20379;-73
2022/11/02 02:14:29;;;;;;;;;;;;;;;8.32;91.28;98891.72;4159101;28;20955;-73
2022/11/02 02:16:59;;;;;;;4.70;1.58;;;;;;;8.35;91.07;98899.28;4160180;28;19921;-73
2022/11/02 02:19:14;;;;;;;3.80;1.30;;;;;;;8.40;91.87;98892.72;4157358;28;20103;-73
2022/11/02 02:21:23;;;;;;;4.35;1.63;;;;;;;8.49;92.67;98892.56;4158304;28;20440;-73
2022/11/02 02:23:38;;;;;;;2.35;1.40;;;;;;;8.46;91.49;98891.31;4156674;28;20048;-73
2022/11/02 02:26:00;;;;;;;5.00;1.80;;;;;;;8.59;90.95;98892.03;4157753;28;20456;-73
2022/11/02 02:28:09;;;;;;;10.95;2.30;;;;;;;8.62;92.06;98883.88;4159686;28;20053;-73
2022/11/02 02:30:11;;;;;;;4.53;1.65;;;;;;;8.67;91.97;98891.88;4158014;28;20152;-73
2022/11/02 02:32:28;;;;;;;4.45;1.80;;;;;;;8.66;91.21;98890.25;4157528;28;20040;-72
2022/11/02 02:34:52;;;;;;;6.35;1.80;;;;;;;8.63;90.80;98881.91;4156996;28;20397;-73
2022/11/02 02:37:01;;;;;;;7.78;2.88;;;;;;;8.58;91.00;98880.19;4151372;28;20053;-73
2022/11/02 02:39:29;;;;;;;5.72;2.03;;;;;;;8.71;90.79;98876.22;4157566;28;20159;-73
2022/11/02 02:41:38;;;;;;;7.35;2.15;;;;;;;8.75;90.45;98881.00;4156219;28;20122;-72
2022/11/02 02:43:48;;;;;;;5.57;1.92;;;;;;;8.77;90.64;98871.25;4160032;28;20058;-73
2022/11/02 02:45:57;;;;;;;9.55;2.15;;;;;;;8.82;90.72;98878.44;4161978;28;20086;-72
2022/11/02 02:48:13;;;;;;;4.85;1.70;;;;;;;8.84;89.83;98874.16;4157399;28;20085;-73
2022/11/02 02:50:20;;;;;;;4.95;1.90;;;;;;;8.87;90.24;98881.72;4159906;28;20521;-72
2022/11/02 02:52:22;;;;;;;3.80;1.80;;;;;;;8.87;90.27;98880.94;4157415;28;20033;-73
2022/11/02 02:54:27;;;;;;;;;;;;;;;8.82;90.60;98878.44;4160194;28;20095;-73
2022/11/02 02:56:31;;;;;;;2.17;1.70;;;;;;;8.83;92.00;98878.06;4158626;28;20364;-73
2022/11/02 02:58:39;;;;;;;7.35;2.42;;;;;;;8.87;90.60;98873.47;4157673;28;20069;-73
2022/11/02 03:00:39;;;;;;;3.67;1.90;;;;;;;8.86;90.06;98884.84;4157474;28;20340;-73
2022/11/02 03:02:41;;;;;;;3.95;1.95;;;;;;;8.80;90.12;98875.25;4155750;28;20472;-73
2022/11/02 03:04:41;;;;;;;8.82;2.50;;;;;;;8.81;90.98;98877.63;4161548;28;20098;-73
2022/11/02 03:06:49;;;;;;;4.10;2.08;;;;;;;8.83;91.76;98874.50;4161706;28;20198;-73
2022/11/02 03:09:05;;;;;;;2.85;2.10;;;;;;;8.78;91.59;98864.56;4157863;28;20060;-73
2022/11/02 03:11:17;;;;;;;4.10;1.98;;;;;;;8.77;91.99;98870.41;4159851;28;20076;-72
2022/11/02 03:13:45;;;;;;;9.00;2.13;;;;;;;8.76;91.82;98864.09;4157565;28;20077;-73
2022/11/02 03:16:20;;;;;;;4.07;2.10;;;;;;;8.76;91.58;98860.53;4162107;28;20060;-73
2022/11/02 03:18:45;;;;;;;4.63;2.28;;;;;;;8.76;92.03;98872.38;4151194;28;20060;-73
2022/11/02 03:21:16;;;;;;;2.40;1.70;;;;;;;8.74;91.46;98871.94;4162320;28;20059;-73
2022/11/02 03:23:27;;;;;;;4.82;2.25;;;;;;;8.77;92.28;98878.69;4159066;28;20478;-73
2022/11/02 03:25:54;;;;;;;3.55;1.95;;;;;;;8.69;91.41;98878.53;4157153;28;20083;-73
2022/11/02 03:28:22;;;;;;;5.10;2.15;;;;;;;8.63;92.46;98879.16;4156893;28;20060;-73
2022/11/02 03:30:28;;;;;;;5.30;2.30;;;;;;;8.60;91.79;98874.31;4157165;28;20132;-73
2022/11/02 03:32:54;;;;;;;4.55;1.95;;;;;;;8.57;93.09;98870.34;4156730;28;20099;-73
2022/11/02 03:34:58;;;;;;;5.13;1.75;;;;;;;8.53;92.40;98869.44;4156774;28;20048;-73
2022/11/02 03:37:34;;;;;;;3.28;1.67;;;;;;;8.51;92.42;98870.94;4156574;28;20504;-73
2022/11/02 03:39:39;;;;;;;5.40;1.58;;;;;;;8.43;92.93;98878.22;4126653;28;20524;-73
2022/11/02 03:41:44;;;;;;;5.10;1.70;;;;;;;8.39;93.08;98872.63;4160356;28;20046;-73
2022/11/02 03:43:46;;;;;;;10.85;2.00;;;;;;;8.37;93.18;98874.94;4160942;28;20050;-73
2022/11/02 03:45:52;;;;;;;5.18;2.13;;;;;;;8.35;93.74;98882.75;4160604;28;20136;-73
2022/11/02 03:47:58;;;;;;;5.68;2.45;;;;;;;8.33;94.14;98870.44;4157884;28;20124;-73
2022/11/02 03:50:01;;;;;;;7.60;2.15;;;;;;;8.32;93.66;98879.88;4159809;28;20050;-73
2022/11/02 03:52:07;;;;;;;5.13;1.95;;;;;;;8.31;93.61;98875.53;4155420;28;20046;-73
2022/11/02 03:54:20;;;;;;;4.30;1.83;;;;;;;8.31;93.51;98887.34;4158269;28;20033;-73
2022/11/02 03:56:30;;;;;;;3.53;1.70;;;;;;;8.49;94.80;98868.53;4161257;28;20148;-73
2022/11/02 03:58:30;;;;;;;2.67;1.90;;;;;;;8.53;93.39;98874.97;4156568;28;20076;-73
2022/11/02 04:00:35;;;;;;;5.82;1.98;;;;;;;8.51;92.70;98880.00;4155370;28;20049;-73
2022/11/02 04:02:37;;;;;;;4.38;1.80;;;;;;;8.47;92.66;98883.84;4155944;28;20412;-73
2022/11/02 04:04:51;;;;;;;6.00;2.10;;;;;;;8.47;93.35;98883.84;4157437;28;20473;-73
2022/11/02 04:06:52;;;;;;;3.38;1.60;;;;;;;8.41;94.04;98884.09;4158272;28;20470;-73
2022/11/02 04:08:52;;;;;;;3.05;1.90;;;;;;;8.39;93.61;98880.09;4156631;28;20088;-73
2022/11/02 04:15:30;;;;;;;5.47;1.80;;;;;;;8.36;93.93;98872.56;4156982;28;20099;-73
2022/11/02 04:19:50;;;;;;;4.32;1.70;;;;;;;8.37;93.74;98874.16;4156773;28;20571;-73
2022/11/02 04:26:28;;;;;;;4.82;1.40;;;;;;;8.21;93.96;98857.56;4154973;28;20149;-73
2022/11/02 04:28:28;;;;;;;5.32;1.50;;;;;;;8.16;94.15;98866.06;4156159;28;20065;-73
2022/11/02 04:30:29;;;;;;;4.05;1.65;;;;;;;8.12;94.15;98860.47;4158551;28;20123;-73
2022/11/02 04:34:48;;;;;;;5.10;1.70;;;;;;;8.27;94.58;98860.84;4155429;28;20134;-73
2022/11/02 04:36:48;;;;;;;4.40;1.70;;;;;;;8.23;94.18;98855.22;4155048;28;20053;-73
2022/11/02 04:38:48;;;;;;;7.10;1.85;;;;;;;8.27;94.42;98858.88;4157241;28;20384;-73
2022/11/02 04:41:40;;;;;;;5.28;1.48;;;;;;;8.30;94.79;98863.69;4156878;28;20207;-73
2022/11/02 04:43:09;;;;;;;4.53;1.60;;;;;;;8.32;93.82;98858.63;4154353;28;21035;-73
2022/11/02 04:45:10;;;;;;;5.75;1.98;;;;;;;8.35;94.02;98857.94;4158084;28;20045;-73
2022/11/02 04:47:10;;;;;;;3.90;1.85;;;;;;;8.52;94.90;98861.50;4155324;28;20453;-73
2022/11/02 04:49:11;;;;;;;5.47;2.05;;;;;;;8.60;93.79;98866.06;4157961;28;20353;-73
2022/11/02 04:51:11;;;;;;;3.83;1.75;;;;;;;8.57;93.75;98850.22;4159009;28;20461;-73
2022/11/02 04:53:12;;;;;;;5.05;2.25;;;;;;;8.59;92.78;98856.97;4154494;28;20073;-73
2022/11/02 04:55:12;;;;;;;5.80;1.83;;;;;;;8.56;93.51;98856.91;4155532;28;20481;-73
2022/11/02 04:57:12;;;;;;;5.47;1.95;;;;;;;8.53;93.48;98854.88;4157417;28;20142;-73
2022/11/02 04:59:13;;;;;;;7.10;2.00;;;;;;;8.56;92.74;98848.63;4155601;28;20417;-73
2022/11/02 05:01:14;;;;;;;5.93;2.35;;;;;;;8.57;93.23;98852.97;4161018;28;20125;-73
2022/11/02 05:03:14;;;;;;;6.10;2.00;;;;;;;8.66;93.00;98846.13;4157066;28;20042;-73
2022/11/02 05:05:16;;;;;;;5.38;1.80;;;;;;;8.71;93.53;98845.88;4155315;28;20126;-73
2022/11/02 05:07:16;;;;;;;7.72;2.75;;;;;;;8.76;92.66;98849.50;4155686;28;20207;-73
2022/11/02 05:09:17;;;;;;;5.05;2.10;;;;;;;8.77;92.62;98851.94;4154988;28;20128;-73
2022/11/02 05:11:18;;;;;;;3.78;1.80;;;;;;;8.80;92.79;98844.88;4154740;28;20087;-73
2022/11/02 05:13:18;;;;;;;8.27;2.25;;;;;;;8.79;91.99;98846.06;4154584;28;20037;-73
2022/11/02 05:15:18;;;;;;;3.22;1.50;;;;;;;8.79;92.36;98840.53;4162904;28;20393;-73
2022/11/02 05:17:19;;;;;;;4.97;3.03;;;;;;;8.85;92.46;98839.09;4156086;28;20482;-73
2022/11/02 05:19:19;;;;;;;8.07;2.65;;;;;;;8.85;92.14;98856.44;4158254;28;20485;-73
2022/11/02 05:21:19;;;;;;;5.85;2.00;;;;;;;8.82;91.86;98857.16;4155460;28;20053;-73
2022/11/02 05:23:20;;;;;;;6.10;2.03;;;;;;;8.79;92.09;98855.13;4156894;28;20041;-73
2022/11/02 05:25:21;;;;;;;8.27;2.20;;;;;;;8.80;92.21;98859.47;4159286;28;20056;-73
2022/11/02 05:27:21;;;;;;;5.13;1.58;;;;;;;8.77;92.19;98871.25;4155964;28;20049;-73
2022/11/02 05:29:21;;;;;;;7.05;2.30;;;;;;;8.80;92.34;98878.00;4154910;28;20409;-73
2022/11/02 05:31:22;;;;;;;8.77;2.30;;;;;;;8.81;91.72;98883.16;4152976;28;20046;-73
2022/11/02 05:33:22;;;;;;;4.70;2.33;;;;;;;8.83;92.02;98891.06;4159273;28;20056;-73
2022/11/02 05:35:23;;;;;;;4.20;2.13;;;;;;;8.88;92.37;98907.38;4156009;28;20042;-73
2022/11/02 05:37:23;;;;;;;5.30;1.70;;;;;;;8.88;91.66;98902.66;4155432;28;20124;-73
2022/11/02 05:39:23;;;;;;;6.97;2.80;;;;;;;8.89;90.69;98886.88;4157122;28;20103;-73
2022/11/02 05:41:24;;;;;;;7.45;2.60;;;;;;;8.82;91.01;98886.72;4155456;28;20466;-73
2022/11/02 05:43:25;;;;;;;5.28;1.80;;;;;;;8.78;91.50;98897.66;4154380;28;20348;-73
2022/11/02 05:45:25;;;;;;;6.07;1.77;;;;;;;8.73;91.96;98898.72;4155942;28;20176;-73
2022/11/02 05:47:26;;;;;;;5.90;2.13;;;;;;;8.65;91.74;98902.47;4154528;28;20034;-73
2022/11/02 05:49:26;;;;;;;4.22;1.90;;;;;;;8.62;93.07;98888.59;4154984;28;20060;-73
2022/11/02 05:51:26;;;;;;;6.43;1.90;;;;;;;8.70;93.66;98884.84;4155317;28;20560;-72
2022/11/02 05:53:32;;;;;;;5.72;1.60;;;;;;;8.73;93.31;98895.16;4154949;28;20058;-73
2022/11/02 05:55:34;;;;;;;8.65;1.90;;;;;;;8.76;93.11;98893.66;4156426;28;20054;-73
2022/11/02 05:57:34;;;;;;;5.68;2.17;;;;;;;8.77;93.20;98889.72;4155611;28;20121;-73
2022/11/02 05:59:35;;;;;;;9.40;2.88;;;;;;;8.78;93.32;98883.06;4156369;28;20081;-73
2022/11/02 06:01:35;;;;;;;5.82;2.00;;;;;;;8.82;92.92;98887.50;4155042;28;20074;-73
2022/11/02 06:03:36;;;;;;;4.53;2.08;;;;;;;8.81;93.05;98905.22;4082155;28;20072;-73
2022/11/02 06:05:36;;;;;;;4.28;1.70;;;;;;;8.88;92.97;98907.38;4158852;28;20251;-73
2022/11/02 06:07:37;;;;;;;4.07;1.92;;;;;;;8.95;92.89;98902.81;4158429;28;20042;-73
2022/11/02 06:09:37;;;;;;;7.07;1.83;;;;;;;9.00;93.20;98921.06;4154455;28;20874;-73
2022/11/02 06:11:38;;;;;;;8.32;2.30;;;;;;;9.01;93.42;98906.09;4154125;28;20077;-73
2022/11/02 06:13:39;;;;;;;7.32;2.10;;;;;;;9.11;92.32;98915.81;4154924;28;20076;-73
2022/11/02 06:15:40;;;;;;;10.90;3.20;;;;;;;9.15;93.00;98924.97;4154345;28;20064;-73
2022/11/02 06:17:40;;;;;;;7.40;2.70;;;;;;;9.27;91.31;98922.13;4156916;28;20034;-73
2022/11/02 06:19:41;;;;;;;7.63;2.15;;;;;;;9.27;91.75;98922.94;4156759;28;20811;-73
2022/11/02 06:21:41;;;;;;;7.07;2.53;;;;;;;9.29;91.61;98928.88;4153793;28;20096;-72
2022/11/02 06:23:42;;;;;;;7.38;2.60;;;;;;;9.37;91.66;98929.06;4155203;28;20169;-73
2022/11/02 06:25:43;;;;;;;6.30;2.38;;;;;;;9.45;90.98;98920.56;4160461;28;20051;-73
2022/11/02 06:27:55;;;;;;;6.38;1.83;;;;;;;9.40;91.28;98920.03;4159807;28;20084;-73
2022/11/02 06:29:56;;;;;;;11.00;2.15;;;;;;;9.45;91.62;98933.59;4158514;28;20513;-72
2022/11/02 06:31:56;;;;;;;8.57;2.40;;;;;;;9.44;91.33;98935.53;4157535;28;20057;-73
2022/11/02 06:33:56;;;;;;;5.88;1.80;;;;;;;9.46;91.66;98947.03;4157720;28;20706;-73
2022/11/02 06:35:57;;;;;;;4.60;2.20;;;;;;;9.43;91.31;98942.25;4161612;28;20439;-73
2022/11/02 06:37:57;;;;;;;6.40;2.13;;;;;;;9.45;92.00;98942.66;4159948;28;20481;-73
2022/11/02 06:39:57;;;;;;;7.63;2.05;;;;;;;9.49;91.72;98951.03;4159092;28;20045;-73
2022/11/02 06:41:58;;;;;;;10.68;3.13;;;;;;;9.52;92.02;98953.88;4163141;28;20100;-73
2022/11/02 06:43:58;;;;;;;10.60;2.80;;;;;;;9.53;91.77;98946.41;4156750;28;20420;-73
2022/11/02 06:45:58;;;;;;;8.25;1.95;;;;;;;9.58;91.56;98946.91;4155097;28;20415;-73
2022/11/02 06:47:59;;;;;;;8.32;2.60;;;;;;;9.63;91.50;98961.63;4156454;28;20033;-73
2022/11/02 06:49:59;;;;;;;6.45;1.90;;;;;;;9.63;91.85;98956.09;4154952;28;20053;-73
2022/11/02 06:51:59;;;;;;;7.25;2.17;;;;;;;9.64;91.70;98961.25;4158008;28;20059;-73
2022/11/02 06:54:00;;;;;;;6.28;2.50;;;;;;;9.64;91.93;98958.47;4158594;28;20088;-73
2022/11/02 06:56:00;;;;;;;5.70;2.22;;;;;;;9.66;91.80;98969.16;4155412;28;20210;-73
2022/11/02 06:58:00;;;;;;;9.48;3.08;;;;;;;9.70;91.58;98973.63;4156963;28;20052;-73
2022/11/02 07:00:03;;;;;;;7.60;2.08;;;;;;;9.74;91.25;98976.47;4157164;28;20053;-73
2022/11/02 07:02:04;;;;;;;5.18;2.45;;;;;;;9.79;91.25;98988.03;4157169;28;20021;-73
2022/11/02 07:04:04;;;;;;;5.75;2.83;;;;;;;9.83;91.34;98990.88;4156313;28;20025;-73
2022/11/02 07:06:05;;;;;;;4.88;2.47;;;;;;;9.84;91.01;98996.03;4156450;28;20029;-73
2022/11/02 07:08:05;;;;;;;7.93;2.08;;;;;;;9.85;91.20;99003.19;4159432;28;20231;-73
2022/11/02 07:10:09;;;;;;;7.75;2.38;;;;;;;9.92;91.23;99013.59;4156755;28;20458;-73
2022/11/02 07:12:09;;;;;;;4.07;1.92;;;;;;;9.94;90.93;99013.25;4159838;28;20060;-73
2022/11/02 07:14:09;;;;;;;4.85;2.08;;;;;;;10.02;89.71;98998.44;4159110;28;20503;-73
2022/11/02 07:16:10;;;;;;;8.25;2.08;;;;;;;10.05;90.03;99012.31;4158371;28;20523;-73
2022/11/02 07:18:11;;;;;;;7.03;2.42;;;;;;;10.10;89.75;99008.47;4158868;28;20351;-73
2022/11/02 07:20:12;;;;;;;5.82;2.20;;;;;;;10.07;89.64;99023.00;4163218;28;20147;-73
2022/11/02 07:22:12;;;;;;;9.82;2.20;;;;;;;10.06;89.62;99019.44;4159523;28;20481;-73
2022/11/02 07:24:12;;;;;;;7.75;2.83;;;;;;;10.03;89.90;99017.41;4155954;28;20029;-73
2022/11/02 07:26:12;;;;;;;5.55;2.75;;;;;;;10.06;89.71;99022.19;4162138;28;20067;-73
2022/11/02 07:28:13;;;;;;;6.43;2.15;;;;;;;10.03;89.81;99014.66;4159121;28;20059;-73
2022/11/02 07:30:13;;;;;;;7.60;2.78;;;;;;;10.02;89.97;99021.34;4156586;28;20077;-73
2022/11/02 07:32:14;;;;;;;7.43;2.03;;;;;;;10.06;90.06;99013.91;4155356;28;20454;-73
2022/11/02 07:34:14;;;;;;;6.90;1.92;;;;;;;10.08;89.48;99013.53;4161391;28;20136;-73
2022/11/02 07:36:15;;;;;;;4.63;2.08;;;;;;;10.09;89.83;99021.50;4160147;28;20021;-73
2022/11/02 07:38:15;;;;;;;6.75;1.83;;;;;;;10.09;89.79;99024.25;4157241;28;20033;-73
2022/11/02 07:40:15;;;;;;;5.28;1.77;;;;;;;10.10;89.55;99033.34;4160944;28;20108;-73
2022/11/02 07:42:16;;;;;;;17.60;9.45;;;;;;;10.20;88.78;99027.25;4157118;28;20060;-73
2022/11/02 07:44:16;;;;;;;7.10;3.60;;;;;;;10.30;87.23;99023.13;4157256;28;20049;-73
2022/11/02 07:46:17;;;;;;;11.73;7.20;;;;;;;10.37;87.42;99028.81;4159350;28;20583;-73
2022/11/02 07:48:17;;;;;;;9.50;4.60;;;;;;;10.37;87.38;99029.63;4158286;28;20209;-73
2022/11/02 07:50:21;;;;;;;5.28;1.92;;;;;;;10.37;87.49;99026.06;4160380;28;20029;-73
2022/11/02 07:52:21;;;;;;;9.63;4.13;;;;;;;10.39;86.83;99019.00;4157437;28;20392;-73
2022/11/02 07:54:21;;;;;;;9.25;3.10;;;;;;;10.42;87.44;99028.53;4158664;28;20528;-73
2022/11/02 07:56:22;;;;;;;9.60;2.35;;;;;;;10.52;86.33;99036.25;4160694;28;20075;-73
2022/11/02 07:58:22;;;;;;;6.63;2.63;;;;;;;10.51;86.82;99029.13;4158269;28;20163;-73
2022/11/02 08:00:24;;;;;;;5.65;2.30;;;;;;;10.51;86.54;99037.44;4157551;28;20040;-73
2022/11/02 08:02:25;;;;;;;5.60;1.98;;;;;;;10.48;86.69;99034.56;4157366;28;20049;-73
2022/11/02 08:04:25;;;;;;;8.60;2.53;;;;;;;10.56;85.69;99023.28;4156018;28;20056;-73
2022/11/02 08:06:25;;;;;;;5.78;1.90;;;;;;;10.56;85.99;99036.31;4158104;28;20048;-73
2022/11/02 08:08:26;;;;;;;4.55;1.85;;;;;;;10.51;86.46;99036.59;4159041;28;20047;-73
2022/11/02 08:10:28;;;;;;;8.85;2.20;;;;;;;10.48;86.20;99035.38;4158890;28;20050;-73
2022/11/02 08:12:29;;;;;;;5.20;1.98;;;;;;;10.49;86.01;99034.19;4159491;28;20041;-73
2022/11/02 08:14:29;;;;;;;7.28;2.10;;;;;;;10.60;84.79;99045.50;4158403;28;20761;-73
2022/11/02 08:16:29;;;;;;;3.83;1.65;;;;;;;10.57;85.01;99043.44;4159099;28;20071;-73
2022/11/02 08:18:31;;;;;;;4.70;2.10;;;;;;;10.56;85.30;99033.56;4156993;28;20393;-73
2022/11/02 08:20:33;;;;;;;10.60;2.30;;;;;;;10.56;84.54;99034.34;4154679;28;20445;-73
2022/11/02 08:22:38;;;;;;;4.70;2.33;;;;;;;10.59;84.42;99039.19;4154936;28;20124;-73
2022/11/02 08:24:39;;;;;;;4.90;2.58;;;;;;;10.65;84.32;99039.66;4154209;28;20041;-73
2022/11/02 08:26:39;;;;;;;6.45;1.80;;;;;;;10.67;84.75;99043.69;4155330;28;20440;-72
2022/11/02 08:28:40;;;;;;;6.38;2.13;;;;;;;10.64;84.89;99044.41;4155198;28;20136;-73
2022/11/02 08:30:40;;;;;;;6.03;1.63;;;;;;;10.65;84.50;99036.91;4159800;28;20393;-73
2022/11/02 08:32:41;;;;;;;6.28;1.90;;;;;;;10.78;84.19;99043.91;4160151;28;20060;-73
2022/11/02 08:34:41;;;;;;;5.93;2.42;;;;;;;10.82;83.50;99049.47;4158097;28;20052;-73
2022/11/02 08:36:41;;;;;;;5.47;2.00;;;;;;;10.84;83.38;99052.69;4159830;28;20041;-73
2022/11/02 08:38:42;;;;;;;2.92;1.55;;;;;;;10.85;83.11;99051.53;4156430;28;20050;-73
2022/11/02 08:40:43;;;;;;;7.22;2.13;;;;;;;10.89;82.50;99049.63;4157812;28;20072;-73
2022/11/02 08:42:43;;;;;;;8.85;2.35;;;;;;;10.93;82.72;99054.09;4157683;28;20061;-73
2022/11/02 08:44:44;;;;;;;5.35;1.83;;;;;;;10.93;82.33;99036.66;4156105;28;20045;-73
2022/11/02 08:46:44;;;;;;;4.70;1.80;;;;;;;11.00;81.23;99055.34;4158296;28;20091;-73
2022/11/02 08:48:45;;;;;;;5.25;2.38;;;;;;;11.09;80.44;99050.38;4158597;28;20099;-73
2022/11/02 08:50:47;;;;;;;4.88;1.90;;;;;;;11.18;80.39;99051.78;4157802;28;20339;-73
2022/11/02 08:52:47;;;;;;;5.85;1.70;;;;;;;11.21;80.49;99051.03;4155882;28;20041;-73
2022/11/02 08:54:48;;;;;;;4.10;1.90;;;;;;;11.23;80.71;99054.22;4157697;28;20049;-73
2022/11/02 08:56:48;;;;;;;2.70;1.70;;;;;;;11.24;81.61;99055.03;4158722;28;20048;-73
2022/11/02 08:58:48;;;;;;;5.05;1.70;;;;;;;11.26;81.79;99058.25;4157613;28;20052;-73
2022/11/02 09:00:52;;;;;;;3.35;1.70;;;;;;;11.26;81.34;99055.47;4155739;28;20044;-73
2022/11/02 09:03:09;;;;;;;3.33;2.03;;;;;;;11.32;80.03;99067.03;4160942;28;20115;-73
2022/11/02 09:05:10;;;;;;;5.18;2.20;;;;;;;11.36;80.11;99057.63;4158818;28;20160;-73
2022/11/02 09:07:10;;;;;;;3.65;1.63;;;;;;;11.36;78.03;99065.13;4156110;28;20068;-73
2022/11/02 09:09:10;;;;;;;7.53;2.92;;;;;;;11.45;77.86;99063.72;4156028;28;20056;-73
2022/11/02 09:11:11;;;;;;;8.10;2.38;;;;;;;11.45;78.48;99069.25;4157062;28;20148;-73
2022/11/02 09:13:13;;;;;;;7.20;2.00;;;;;;;11.48;78.70;99065.75;4155432;28;20120;-73
2022/11/02 09:15:14;;;;;;;5.05;1.92;;;;;;;11.50;78.89;99057.88;4156661;28;20033;-73
2022/11/02 09:17:14;;;;;;;13.13;3.22;;;;;;;11.52;79.43;99066.63;4156903;28;20382;-73
2022/11/02 09:19:14;;;;;;;8.90;2.70;;;;;;;11.52;78.56;99071.34;4155856;28;20121;-73
2022/11/02 09:21:14;;;;;;;5.13;2.20;;;;;;;11.58;78.10;99069.84;4156446;28;20045;-73
2022/11/02 09:23:16;;;;;;;5.65;2.00;;;;;;;11.61;78.09;99066.38;4157972;28;20048;-73
2022/11/02 09:25:17;;;;;;;8.23;1.98;;;;;;;11.68;76.10;99072.03;4155255;28;20041;-73
2022/11/02 09:27:17;;;;;;;4.90;1.75;;;;;;;11.71;75.86;99076.81;4154843;28;20373;-73
2022/11/02 09:29:17;;;;;;;6.18;1.95;;;;;;;11.70;75.87;99077.19;4154645;28;20046;-73
2022/11/02 09:31:18;;;;;;;4.78;1.80;;;;;;;11.75;76.15;99074.91;4154432;28;20116;-73
2022/11/02 09:33:18;;;;;;;3.92;2.30;;;;;;;11.81;75.38;99072.66;4154216;28;20064;-73
2022/11/02 09:35:19;;;;;;;6.40;2.08;;;;;;;11.76;74.54;99064.63;4157746;28;20198;-73
2022/11/02 09:37:19;;;;;;;7.15;1.70;;;;;;;11.74;73.87;99070.53;4159995;28;20489;-73
2022/11/02 09:39:23;;;;;;;4.32;1.90;;;;;;;11.77;73.22;99064.25;4159485;28;20115;-73
2022/11/02 09:41:38;;;;;;;4.38;1.67;;;;;;;11.76;74.39;99067.41;4156943;28;20045;-73
2022/11/02 09:44:04;;;;;;;5.30;1.75;;;;;;;11.88;74.01;99067.22;4155961;28;20053;-73
2022/11/02 09:46:10;;;;;;;5.93;2.03;;;;;;;11.87;73.13;99081.47;4158614;28;20385;-72
2022/11/02 09:48:25;;;;;;;5.50;2.05;;;;;;;11.89;73.72;99076.34;4154500;28;20435;-73
2022/11/02 09:50:40;;;;;;;5.00;1.65;;;;;;;11.91;71.33;99073.97;4158477;28;20115;-73
2022/11/02 09:52:44;;;;;;;2.70;1.30;;;;;;;11.87;70.56;99073.13;4159639;28;20041;-73
2022/11/02 09:54:49;;;;;;;6.20;1.65;;;;;;;11.89;71.64;99065.25;4157441;28;20084;-73
2022/11/02 09:56:51;;;;;;;5.03;1.48;;;;;;;11.78;71.16;99082.47;4159084;28;20452;-73
2022/11/02 09:59:02;;;;;;;9.38;1.88;;;;;;;11.82;70.60;99077.81;4158688;28;20049;-72